Time,TemperatureF,DewpointF,PressureIn,WindDirection,WindDirectionDegrees,WindSpeedMPH,WindSpeedGustMPH,Humidity,HourlyPrecipIn,Conditions,Clouds,dailyrainin,SolarRadiationWatts/m^2,SoftwareType,DateUTC
2013-05-12 00:01:00,34.0,26.0,-100.00,NNW,333,0.0,5.0,73,0.00,,,0.00,0.000000,,2013-05-12 06:01:00,
2013-05-12 00:32:00,32.0,27.0,-100.00,NW,311,1.0,3.0,81,0.00,,,0.00,0.000000,,2013-05-12 06:32:00,
2013-05-12 00:42:00,32.0,27.0,-100.00,NW,311,1.0,3.0,81,0.00,,,0.00,0.000000,,2013-05-12 06:42:00,
2013-05-12 00:52:00,32.0,27.0,-100.00,NW,311,1.0,3.0,81,0.00,,,0.00,0.000000,,2013-05-12 06:52:00,
2013-05-12 01:01:00,32.0,27.0,-100.00,NW,311,1.0,3.0,81,0.00,,,0.00,0.000000,,2013-05-12 07:01:00,
2013-05-12 01:32:00,33.0,26.0,-100.00,NW,307,2.0,4.0,76,0.00,,,0.00,0.000000,,2013-05-12 07:32:00,
2013-05-12 01:42:00,33.0,26.0,-100.00,NW,307,2.0,4.0,76,0.00,,,0.00,0.000000,,2013-05-12 07:42:00,
2013-05-12 01:52:00,33.0,26.0,-100.00,NW,307,2.0,4.0,76,0.00,,,0.00,0.000000,,2013-05-12 07:52:00,
2013-05-12 02:02:00,33.0,26.0,-100.00,NW,307,2.0,4.0,76,0.00,,,0.00,0.000000,,2013-05-12 08:02:00,
2013-05-12 02:32:00,33.0,26.0,-100.00,NW,316,3.0,6.0,76,0.00,,,0.00,0.000000,,2013-05-12 08:32:00,
2013-05-12 02:42:00,33.0,26.0,-100.00,NW,316,3.0,6.0,76,0.00,,,0.00,0.000000,,2013-05-12 08:42:00,
2013-05-12 02:53:00,33.0,26.0,-100.00,NW,316,3.0,6.0,76,0.00,,,0.00,0.000000,,2013-05-12 08:53:00,
2013-05-12 03:01:00,33.0,26.0,-100.00,NW,316,3.0,6.0,76,0.00,,,0.00,0.000000,,2013-05-12 09:01:00,
2013-05-12 03:33:00,33.0,27.0,-100.00,NNW,329,5.0,11.0,77,0.00,,,0.00,0.000000,,2013-05-12 09:33:00,
2013-05-12 03:43:00,33.0,27.0,-100.00,NNW,329,5.0,11.0,77,0.00,,,0.00,0.000000,,2013-05-12 09:43:00,
2013-05-12 03:53:00,33.0,27.0,-100.00,NNW,329,5.0,11.0,77,0.00,,,0.00,0.000000,,2013-05-12 09:53:00,
2013-05-12 04:03:00,33.0,27.0,-100.00,NNW,329,5.0,11.0,77,0.00,,,0.00,0.000000,,2013-05-12 10:03:00,
2013-05-12 04:33:00,32.0,27.0,-100.00,SW,221,2.0,6.0,82,0.00,,,0.00,0.000000,,2013-05-12 10:33:00,
2013-05-12 04:42:00,32.0,27.0,-100.00,SW,221,2.0,6.0,82,0.00,,,0.00,0.000000,,2013-05-12 10:42:00,
2013-05-12 04:52:00,32.0,27.0,-100.00,SW,221,2.0,6.0,82,0.00,,,0.00,0.000000,,2013-05-12 10:52:00,
2013-05-12 05:02:00,32.0,27.0,-100.00,SW,221,2.0,6.0,82,0.00,,,0.00,0.000000,,2013-05-12 11:02:00,
2013-05-12 05:32:00,35.0,30.0,-100.00,NW,310,4.0,9.0,81,0.00,,,0.00,0.000000,,2013-05-12 11:32:00,
2013-05-12 05:42:00,35.0,30.0,-100.00,NW,310,4.0,9.0,81,0.00,,,0.00,0.000000,,2013-05-12 11:42:00,
2013-05-12 05:52:00,35.0,30.0,-100.00,NW,310,4.0,9.0,81,0.00,,,0.00,0.000000,,2013-05-12 11:52:00,
2013-05-12 06:02:00,35.0,30.0,-100.00,NW,310,4.0,9.0,81,0.00,,,0.00,0.000000,,2013-05-12 12:02:00,
2013-05-12 07:32:00,36.0,30.0,-100.00,NNW,328,2.0,4.0,80,-99.99,,,0.00,82.000000,,2013-05-12 13:32:00,
2013-05-12 07:42:00,36.0,30.0,-100.00,NNW,328,2.0,4.0,80,-99.99,,,0.00,82.000000,,2013-05-12 13:42:00,
2013-05-12 07:52:00,36.0,30.0,-100.00,NNW,328,2.0,4.0,80,-99.99,,,0.00,82.000000,,2013-05-12 13:52:00,
2013-05-12 08:01:00,36.0,30.0,-100.00,NNW,328,2.0,4.0,80,-99.99,,,0.00,82.000000,,2013-05-12 14:01:00,
2013-05-12 08:32:00,42.0,31.0,-100.00,NNE,18,2.0,7.0,65,0.00,,,0.00,336.000000,,2013-05-12 14:32:00,
2013-05-12 08:42:00,42.0,31.0,-100.00,NNE,18,2.0,7.0,65,0.00,,,0.00,336.000000,,2013-05-12 14:42:00,
2013-05-12 08:52:00,42.0,31.0,-100.00,NNE,18,2.0,7.0,65,0.00,,,0.00,336.000000,,2013-05-12 14:52:00,
2013-05-12 09:01:00,42.0,31.0,-100.00,NNE,18,2.0,7.0,65,0.00,,,0.00,336.000000,,2013-05-12 15:01:00,
2013-05-12 09:34:00,48.0,32.0,-100.00,East,80,3.0,5.0,54,0.00,,,-99.99,553.000000,,2013-05-12 15:34:00,
2013-05-12 09:42:00,48.0,32.0,-100.00,East,80,3.0,5.0,54,0.00,,,-99.99,553.000000,,2013-05-12 15:42:00,
2013-05-12 09:53:00,48.0,32.0,-100.00,East,80,3.0,5.0,54,0.00,,,-99.99,553.000000,,2013-05-12 15:53:00,
2013-05-12 10:02:00,48.0,32.0,-100.00,East,80,3.0,5.0,54,0.00,,,-99.99,553.000000,,2013-05-12 16:02:00,
2013-05-12 10:33:00,52.0,26.0,-100.00,North,351,7.0,16.0,36,0.00,,,0.00,663.000000,,2013-05-12 16:33:00,
2013-05-12 10:42:00,52.0,26.0,-100.00,North,351,7.0,16.0,36,0.00,,,0.00,663.000000,,2013-05-12 16:42:00,
2013-05-12 10:53:00,52.0,26.0,-100.00,North,351,7.0,16.0,36,0.00,,,0.00,663.000000,,2013-05-12 16:53:00,
2013-05-12 11:02:00,52.0,26.0,-100.00,North,351,7.0,16.0,36,0.00,,,0.00,663.000000,,2013-05-12 17:02:00,
2013-05-12 11:32:00,55.0,26.0,-100.00,NNW,339,7.0,20.0,32,0.00,,,-99.99,871.000000,,2013-05-12 17:32:00,
2013-05-12 11:42:00,55.0,26.0,-100.00,NNW,339,7.0,20.0,32,0.00,,,-99.99,871.000000,,2013-05-12 17:42:00,
2013-05-12 11:53:00,55.0,26.0,-100.00,NNW,339,7.0,20.0,32,0.00,,,-99.99,871.000000,,2013-05-12 17:53:00,
2013-05-12 12:01:00,55.0,26.0,-100.00,NNW,339,7.0,20.0,32,0.00,,,-99.99,871.000000,,2013-05-12 18:01:00,
2013-05-12 12:32:00,58.0,23.0,-100.00,North,4,10.0,19.0,26,0.00,,,0.00,1172.000000,,2013-05-12 18:32:00,
2013-05-12 12:42:00,58.0,23.0,-100.00,North,4,10.0,19.0,26,0.00,,,0.00,1172.000000,,2013-05-12 18:42:00,
2013-05-12 12:52:00,58.0,23.0,-100.00,North,4,10.0,19.0,26,0.00,,,0.00,1172.000000,,2013-05-12 18:52:00,
2013-05-12 13:01:00,58.0,23.0,-100.00,North,4,10.0,19.0,26,0.00,,,0.00,1172.000000,,2013-05-12 19:01:00,
2013-05-12 13:32:00,57.0,20.0,-100.00,North,7,9.0,21.0,23,0.00,,,0.00,1208.000000,,2013-05-12 19:32:00,
2013-05-12 13:42:00,57.0,20.0,-100.00,North,7,9.0,21.0,23,0.00,,,0.00,1208.000000,,2013-05-12 19:42:00,
2013-05-12 13:52:00,57.0,20.0,-100.00,North,7,9.0,21.0,23,0.00,,,0.00,1208.000000,,2013-05-12 19:52:00,
2013-05-12 14:02:00,57.0,20.0,-100.00,North,7,9.0,21.0,23,0.00,,,0.00,1208.000000,,2013-05-12 20:02:00,
2013-05-12 14:32:00,58.0,22.0,-100.00,NNW,347,8.0,21.0,25,0.00,,,0.00,874.000000,,2013-05-12 20:32:00,
2013-05-12 14:42:00,58.0,22.0,-100.00,NNW,347,8.0,21.0,25,0.00,,,0.00,874.000000,,2013-05-12 20:42:00,
2013-05-12 14:52:00,58.0,22.0,-100.00,NNW,347,8.0,21.0,25,0.00,,,0.00,874.000000,,2013-05-12 20:52:00,
2013-05-12 15:01:00,58.0,22.0,-100.00,NNW,347,8.0,21.0,25,0.00,,,0.00,874.000000,,2013-05-12 21:01:00,
2013-05-12 15:33:00,61.0,23.0,-100.00,NNW,339,7.0,20.0,23,0.00,,,0.00,932.000000,,2013-05-12 21:33:00,
2013-05-12 15:42:00,61.0,23.0,-100.00,NNW,339,7.0,20.0,23,0.00,,,0.00,932.000000,,2013-05-12 21:42:00,
2013-05-12 15:53:00,61.0,23.0,-100.00,NNW,339,7.0,20.0,23,0.00,,,0.00,932.000000,,2013-05-12 21:53:00,
2013-05-12 16:02:00,61.0,23.0,-100.00,NNW,339,7.0,20.0,23,0.00,,,0.00,932.000000,,2013-05-12 22:02:00,
2013-05-12 16:33:00,56.0,23.0,-100.00,North,354,6.0,17.0,27,0.00,,,0.00,539.000000,,2013-05-12 22:33:00,
2013-05-12 16:42:00,56.0,23.0,-100.00,North,354,6.0,17.0,27,0.00,,,0.00,539.000000,,2013-05-12 22:42:00,
2013-05-12 16:52:00,56.0,23.0,-100.00,North,354,6.0,17.0,27,0.00,,,0.00,539.000000,,2013-05-12 22:52:00,
2013-05-12 17:02:00,56.0,23.0,-100.00,North,354,6.0,17.0,27,0.00,,,0.00,539.000000,,2013-05-12 23:02:00,
2013-05-12 17:32:00,60.0,24.0,-100.00,NW,316,9.0,18.0,25,0.00,,,0.00,757.000000,,2013-05-12 23:32:00,
2013-05-12 17:42:00,60.0,24.0,-100.00,NW,316,9.0,18.0,25,0.00,,,0.00,757.000000,,2013-05-12 23:42:00,
2013-05-12 17:52:00,60.0,24.0,-100.00,NW,316,9.0,18.0,25,0.00,,,0.00,757.000000,,2013-05-12 23:52:00,
2013-05-12 18:01:00,60.0,24.0,-100.00,NW,316,9.0,18.0,25,0.00,,,0.00,757.000000,,2013-05-13 00:01:00,
2013-05-12 18:32:00,59.0,25.0,-100.00,North,360,9.0,17.0,27,0.00,,,0.00,647.000000,,2013-05-13 00:32:00,
2013-05-12 18:42:00,59.0,25.0,-100.00,North,360,9.0,17.0,27,0.00,,,0.00,647.000000,,2013-05-13 00:42:00,
2013-05-12 18:52:00,59.0,25.0,-100.00,North,360,9.0,17.0,27,0.00,,,0.00,647.000000,,2013-05-13 00:52:00,
2013-05-12 19:01:00,59.0,25.0,-100.00,North,360,9.0,17.0,27,0.00,,,0.00,647.000000,,2013-05-13 01:01:00,
2013-05-12 19:32:00,56.0,25.0,-100.00,NNW,333,5.0,17.0,30,0.00,,,0.00,362.000000,,2013-05-13 01:32:00,
2013-05-12 19:42:00,56.0,25.0,-100.00,NNW,333,5.0,17.0,30,0.00,,,0.00,362.000000,,2013-05-13 01:42:00,
2013-05-12 19:52:00,56.0,25.0,-100.00,NNW,333,5.0,17.0,30,0.00,,,0.00,362.000000,,2013-05-13 01:52:00,
2013-05-12 20:01:00,56.0,25.0,-100.00,NNW,333,5.0,17.0,30,0.00,,,0.00,362.000000,,2013-05-13 02:01:00,
2013-05-12 20:32:00,48.0,26.0,-100.00,NW,308,2.0,8.0,42,0.00,,,0.00,42.000000,,2013-05-13 02:32:00,
2013-05-12 20:42:00,48.0,26.0,-100.00,NW,308,2.0,8.0,42,0.00,,,0.00,42.000000,,2013-05-13 02:42:00,
2013-05-12 20:52:00,48.0,26.0,-100.00,NW,308,2.0,8.0,42,0.00,,,0.00,42.000000,,2013-05-13 02:52:00,
2013-05-12 21:02:00,48.0,26.0,-100.00,NW,308,2.0,8.0,42,0.00,,,0.00,42.000000,,2013-05-13 03:02:00,
2013-05-12 21:33:00,46.0,24.0,-100.00,WNW,295,3.0,5.0,42,0.00,,,0.00,1.000000,,2013-05-13 03:33:00,
2013-05-12 21:42:00,46.0,24.0,-100.00,WNW,295,3.0,5.0,42,0.00,,,0.00,1.000000,,2013-05-13 03:42:00,
2013-05-12 21:53:00,46.0,24.0,-100.00,WNW,295,3.0,5.0,42,0.00,,,0.00,1.000000,,2013-05-13 03:53:00,
2013-05-12 22:02:00,46.0,24.0,-100.00,WNW,295,3.0,5.0,42,0.00,,,0.00,1.000000,,2013-05-13 04:02:00,
2013-05-12 22:33:00,42.0,24.0,-100.00,WNW,286,2.0,5.0,49,0.00,,,0.00,0.000000,,2013-05-13 04:33:00,
2013-05-12 22:42:00,42.0,24.0,-100.00,WNW,286,2.0,5.0,49,0.00,,,0.00,0.000000,,2013-05-13 04:42:00,
2013-05-12 22:53:00,42.0,24.0,-100.00,WNW,286,2.0,5.0,49,0.00,,,0.00,0.000000,,2013-05-13 04:53:00,
2013-05-12 23:02:00,42.0,24.0,-100.00,WNW,286,2.0,5.0,49,0.00,,,0.00,0.000000,,2013-05-13 05:02:00,
2013-05-12 23:32:00,38.0,24.0,-100.00,WSW,254,0.0,5.0,57,0.00,,,0.00,0.000000,,2013-05-13 05:32:00,
2013-05-12 23:42:00,38.0,24.0,-100.00,WSW,254,0.0,5.0,57,0.00,,,0.00,0.000000,,2013-05-13 05:42:00,
2013-05-12 23:52:00,38.0,24.0,-100.00,WSW,254,0.0,5.0,57,0.00,,,0.00,0.000000,,2013-05-13 05:52:00,